SLRI/RIB METAR and TAF weather

Enter ICAO airport designator
Station Type Date Time Source
SLRI METAR 2021/05/11 18:00 UTC NOAA

SLRI 111800Z 18010KT 9999 SCT017 FEW020CB BKN080 30/22 Q1013


Station Type Date Time Source
SLRI Decoded METAR 2021/05/11 18:00 UTC NOAA

Riberalta, Bolivia (SLRI) 11-00S 066-07W
May 11, 2021 - 02:00 PM EDT / 2021.05.11 1800 UTC
Wind: from the S (180 degrees) at 12 MPH (10 KT):0
Visibility: greater than 7 mile(s):0
Sky conditions: mostly cloudy
Weather: Cumulonimbus clouds observed
Temperature: 86 F (30 C)
Heat index: 91.8 F (33.2 C):1
Dew Point: 71 F (22 C)
Relative Humidity: 62%
Pressure (altimeter): 29.91 in. Hg (1013 hPa)
ob: SLRI 111800Z 18010KT 9999 SCT017 FEW020CB BKN080 30/22 Q1013
cycle: 18

Station Type Date Time Source
SLRI TAF 2015/11/18 00:29 UTC NOAA

TAF SLRI 182200Z 1900/1924 00000KT 9999 FEW015 TX37/1919Z TN23/1910Z
BECMG 1912/1914 33011KT SCT020
TEMPO 1919/1922 8000 VCSH FEW020 FEW023CB BKN080

Example: see airport list